Tetange, Luxembourg
Current Conditions -  °F | °C
As of 8:20 PM on Monday 20 Oct 2014 (Local Time) from ELLX Reporting Station
Clear Clear  
Wind Chill: 55°   Ceiling: Unl
Heat Index: 55°   Visibility: 6mi
Dew Point: 52°   Wind: 7mph
Humidity: 88%   Direction: 240°WSW
Pressure: 30.03"   Gusts: NA
Location:  49.48°N, 6.04°E
Report Text: ELLX 201820Z 24006KT CAVOK 13/11 Q1017 NOSIG
Loading
Personal Weather Stations






























Interactive Weather Map
Tropical Storm Tracking
New forecast layout! Learn more

10-Day Weather Forecast

Advertisements
Track Severe Weather on mobile